Ocean City, NJ

8:32 AM EDT on October 24, 2014 (GMT -0400)
Ocean City NJ | Change Station
CLOSE
Current Station
Personal Weather Station
Location: Ocean City, NJ
Elevation: 23 ft
Nearby Weather Stations

Elev 23 ft 39.28 °N, 74.57 °W | Updated 29 seconds ago

Partly Cloudy
Partly Cloudy
53.6 °F
Feels Like 53.6 °F
N
6.0
Wind Variable Wind from NNW
Gusts 7.4 mph

Today
High -- | Low -- °F
--% Chance of Precip.
Yesterday
High -- | Low -- °F
Precip. -- in
7:17 AM 6:07 PM
New Moon, 0% visible
Pressure 29.84 in
Visibility 10.0 miles
Clouds Clear
Dew Point 51 °F
Humidity 91%
Rainfall 0.00 in
Snow Depth Not available.
UV 0 out of 12
Pollen 1.50 out of 12
Air Quality Not available.
Flu Activity Sporadic
METAR KACY 241154Z 29003KT 10SM CLR 08/07 A2984 RMK AO2 SLP103 70003 T00830072 10094 20072 53004

More Conditions Fewer Conditions

Pressure 29.84 in
Visibility 10.0 miles
Clouds Clear
Dew Point 51 °F
Humidity 91%
Rainfall 0.00 in
Snow Depth Not available.
UV 0 out of 12
Pollen 1.50 out of 12
Air Quality Not available.
Flu Activity Sporadic
METAR KACY 241154Z 29003KT 10SM CLR 08/07 A2984 RMK AO2 SLP103 70003 T00830072 10094 20072 53004

More Conditions Fewer Conditions

10-Day Weather Forecast

Almanac

Astronomy

Oct. 24, 2014 Rise Set
Actual Time 7:17 AM EDT 6:07 PM EDT
Civil Twilight 6:50 AM EDT 6:34 PM EDT
Nautical Twilight 6:18 AM EDT 7:05 PM EDT
Astronomical Twilight 5:47 AM EDT 7:36 PM EDT
Moon 7:53 AM EDT 6:45 PM EDT
Length of Visible Light 11h 44m
Length of Day
10h 49m
Tomorrow will be 2m 22s shorter.
New Moon, 0% of the Moon is Illuminated
Today
New Moon
Oct 30
First Quarter
Nov 6
Full
Nov 14
Last Quarter
Nov 22
New

Today's Extremes

State Highs State Lows

Community

WunderPhotos

Upload Photos

1,764,544 photos uploaded!

Nearby

Snow Depth

Station Depth Elevation
No new snow has been reported.

Earthquake Activity

City Distance Mag. Time & Date
No recent earthquake activity has been reported nearby.
Minimum magnitude displayed is 2.5.

Coastal Water Temperatures

Place Temperature
Cape May, NJ 62.1 °F
Lewes, DE 57.0 °F

Nearby Weather Stations